Accueil
METAR-TAF:

METAR-TAF

Aéroports :

Aéroport international de Multan

Multan, Pakistan

latitude: 30-12-12N, longitude: 71-25-09E, altitude: 122 m

Observation

Le bulletin a été fait il y a 37 minutes, à 22:00 UTC
Vent calme
Température 9°C
Humidité 93%
Pression 1021 hPa
Visibilité: 4000 m
fumée

METAR: OPMT 222200Z 00000KT 4000 FU NSC 09/08 Q1021 NOSIG

Heure: 03:37 (22:37 UTC)

Prévision

Le bulletin a été fait il y a 6 heures et 47 minutes, à 15:50 UTC
Prévision valable du 22 à 18 UTC au 23 à 12 UTC
Vent 5 kt de nord-ouest
Visibilité: 3000 m
Quelques nuages à une hauteur de 12000 ft
fumée
Probabilité 30% :
Temporairement
du 22 à 20 UTC au 22 à 24 UTC
Vent kt de nord
Visibilité: 1500 m
brume
Temporairement
du 23 à 00 UTC au 23 à 04 UTC
Vent kt de nord
Visibilité: 0800 m
brume

TAF: OPMT 221550Z 2218/2312 31005KT 3000 FU FEW120 TN07/2301Z TX19/2310Z PROB30 TEMPO 2220/2224 00000KT 1500 BR NSC TEMPO 2300/2304 00000KT 0800 BR NSC

Observations et prévisions météorologiques de plus de 4000 aéroports (messages METAR et TAF).

Les stations disponibles sont représentées par des disques jaunes et rouges sur la carte.

Passer la souris dessus pour voir le nom de la station.

Cliquer dessus pour voir les observations et prévisions météorologiques.

Pour changer de carte: cliquez sur les boutons verts avec une croix noire pour zoomer, sur le bouton vert avec un tiret pour effectuer un zoom arrière, ou sur les flèches vertes pour les cartes adjacentes.


METAR-TAF: